Time;durP1;ratioP1;P1;durP2;ratioP2;P2;SDS_P1;SDS_P2;PMS_P1;PMS_P2;Temp;Humidity;BMP_temperature;BMP_pressure;BME280_temperature;BME280_humidity;BME280_pressure;Samples;Min_cycle;Max_cycle;Signal;HPM_P1;HPM_P2
2021/12/21 00:00:45;;;;;;;35.40;12.65;;;;;;;;;;5007427;28;20082;-71
2021/12/21 00:03:12;;;;;;;29.42;12.68;;;;;;;;;;5009853;28;20530;-71
2021/12/21 00:05:39;;;;;;;28.05;11.48;;;;;;;;;;5007809;28;20069;-71
2021/12/21 00:08:08;;;;;;;25.35;11.43;;;;;;;;;;5008073;28;20170;-71
2021/12/21 00:10:35;;;;;;;25.73;10.48;;;;;;;;;;5008379;28;20049;-71
2021/12/21 00:13:06;;;;;;;25.92;11.52;;;;;;;;;;5009431;28;20089;-71
2021/12/21 00:15:49;;;;;;;23.63;10.70;;;;;;;;;;5008871;28;20046;-71
2021/12/21 00:18:25;;;;;;;27.27;11.43;;;;;;;;;;5008248;28;20058;-71
2021/12/21 00:20:59;;;;;;;25.67;10.50;;;;;;;;;;5009084;28;20061;-71
2021/12/21 00:23:35;;;;;;;24.98;10.75;;;;;;;;;;5008339;28;20677;-71
2021/12/21 00:26:05;;;;;;;16.08;7.88;;;;;;;;;;5009866;28;20507;-71
2021/12/21 00:28:37;;;;;;;22.30;10.68;;;;;;;;;;5009895;28;20104;-71
2021/12/21 00:31:05;;;;;;;26.23;11.80;;;;;;;;;;5008111;28;20046;-71
2021/12/21 00:33:31;;;;;;;24.33;10.15;;;;;;;;;;5007906;28;20085;-71
2021/12/21 00:35:58;;;;;;;24.50;11.10;;;;;;;;;;5008527;28;20077;-71
2021/12/21 00:38:25;;;;;;;22.25;9.73;;;;;;;;;;5007305;28;20064;-71
2021/12/21 00:40:51;;;;;;;25.30;8.65;;;;;;;;;;5008631;28;20141;-71
2021/12/21 00:43:18;;;;;;;20.63;8.45;;;;;;;;;;5009135;28;20069;-71
2021/12/21 00:45:44;;;;;;;15.27;7.13;;;;;;;;;;5008580;28;20092;-71
2021/12/21 00:48:15;;;;;;;16.20;6.75;;;;;;;;;;4989033;28;20651;-71
2021/12/21 00:50:41;;;;;;;15.43;7.25;;;;;;;;;;5010071;28;20056;-71
2021/12/21 00:53:08;;;;;;;13.85;6.10;;;;;;;;;;5005275;28;20081;-71
2021/12/21 00:55:34;;;;;;;14.30;6.80;;;;;;;;;;5005854;28;20104;-71
2021/12/21 00:58:01;;;;;;;13.18;5.90;;;;;;;;;;5002189;28;20093;-71
2021/12/21 01:00:28;;;;;;;15.93;7.15;;;;;;;;;;5007792;28;20085;-71
2021/12/21 01:02:57;;;;;;;13.65;6.13;;;;;;;;;;5008351;28;20050;-71
2021/12/21 01:05:31;;;;;;;13.38;7.38;;;;;;;;;;5008976;28;20100;-71
2021/12/21 01:08:01;;;;;;;13.52;7.07;;;;;;;;;;5006878;28;20065;-71
2021/12/21 01:10:50;;;;;;;17.92;7.85;;;;;;;;;;5007643;28;20046;-71
2021/12/21 01:13:30;;;;;;;19.98;7.63;;;;;;;;;;5006323;28;20058;-71
2021/12/21 01:16:03;;;;;;;23.73;8.77;;;;;;;;;;5008485;28;20061;-71
2021/12/21 01:18:36;;;;;;;17.52;7.30;;;;;;;;;;5007065;28;20054;-71
2021/12/21 01:21:10;;;;;;;19.48;8.77;;;;;;;;;;5006193;28;20100;-71
2021/12/21 01:26:27;;;;;;;23.02;8.98;;;;;;;;;;5013792;28;20861;-71
2021/12/21 01:29:03;;;;;;;18.10;8.40;;;;;;;;;;5010127;28;20137;-71
2021/12/21 01:31:38;;;;;;;25.75;7.53;;;;;;;;;;5001498;28;20115;-71
2021/12/21 01:34:19;;;;;;;16.77;7.10;;;;;;;;;;5006723;28;20069;-71
2021/12/21 01:36:53;;;;;;;16.85;8.20;;;;;;;;;;5007921;28;20100;-71
2021/12/21 01:39:48;;;;;;;18.98;7.10;;;;;;;;;;5006122;28;20431;-71
2021/12/21 01:42:20;;;;;;;24.80;8.77;;;;;;;;;;5008210;28;20050;-71
2021/12/21 01:50:12;;;;;;;20.33;8.45;;;;;;;;;;5005976;28;20053;-71
2021/12/21 01:52:40;;;;;;;24.95;10.02;;;;;;;;;;5007171;28;20141;-71
2021/12/21 01:55:07;;;;;;;16.33;8.80;;;;;;;;;;5005715;28;20100;-71
2021/12/21 01:57:34;;;;;;;21.95;8.65;;;;;;;;;;5010088;28;20613;-71
2021/12/21 02:00:01;;;;;;;19.38;8.20;;;;;;;;;;5009031;28;20124;-71
2021/12/21 02:02:28;;;;;;;13.38;6.38;;;;;;;;;;5007429;28;20077;-71
2021/12/21 02:04:54;;;;;;;26.25;10.07;;;;;;;;;;5006178;28;20088;-71
2021/12/21 02:07:21;;;;;;;17.10;8.43;;;;;;;;;;4985870;28;20062;-71
2021/12/21 02:09:49;;;;;;;12.20;6.15;;;;;;;;;;5005844;28;20520;-71
2021/12/21 02:12:17;;;;;;;16.17;7.25;;;;;;;;;;5004993;28;20085;-71
2021/12/21 02:14:48;;;;;;;14.88;7.43;;;;;;;;;;5005728;28;20137;-71
2021/12/21 02:17:38;;;;;;;14.88;6.35;;;;;;;;;;5005455;28;20049;-71
2021/12/21 02:20:16;;;;;;;14.27;6.10;;;;;;;;;;5003792;28;20042;-71
2021/12/21 02:22:47;;;;;;;11.73;5.80;;;;;;;;;;5003631;28;20050;-71
2021/12/21 02:25:36;;;;;;;13.07;6.03;;;;;;;;;;5006171;28;20132;-71
2021/12/21 02:28:22;;;;;;;11.77;5.97;;;;;;;;;;5005470;28;20045;-71
2021/12/21 02:30:53;;;;;;;9.13;5.30;;;;;;;;;;5007851;28;20057;-71
2021/12/21 02:33:20;;;;;;;14.02;5.43;;;;;;;;;;5007264;28;20112;-71
2021/12/21 02:35:48;;;;;;;15.35;6.15;;;;;;;;;;5008665;28;20116;-72
2021/12/21 02:38:15;;;;;;;12.68;6.22;;;;;;;;;;5008039;28;20750;-71
2021/12/21 02:40:41;;;;;;;9.57;5.20;;;;;;;;;;5007997;28;20128;-71
2021/12/21 02:43:10;;;;;;;11.65;5.20;;;;;;;;;;5004508;28;20669;-71
2021/12/21 02:45:38;;;;;;;10.52;4.93;;;;;;;;;;5004172;28;20433;-71
2021/12/21 02:48:05;;;;;;;11.85;5.10;;;;;;;;;;5007220;28;20046;-71
2021/12/21 02:50:31;;;;;;;9.00;4.55;;;;;;;;;;5004842;28;20132;-71
2021/12/21 02:53:00;;;;;;;13.30;5.60;;;;;;;;;;5005475;28;20376;-72
2021/12/21 02:55:27;;;;;;;12.05;5.43;;;;;;;;;;5005482;28;20084;-71
2021/12/21 02:57:53;;;;;;;10.60;5.07;;;;;;;;;;5005484;28;20527;-71
2021/12/21 03:00:20;;;;;;;17.10;5.22;;;;;;;;;;5005406;28;20070;-71
2021/12/21 03:02:47;;;;;;;13.90;5.47;;;;;;;;;;5005406;28;20046;-71
2021/12/21 03:05:13;;;;;;;19.52;7.00;;;;;;;;;;5007135;28;20053;-71
2021/12/21 03:10:26;;;;;;;14.00;6.07;;;;;;;;;;5012032;28;20038;-71
2021/12/21 03:15:37;;;;;;;12.18;5.72;;;;;;;;;;5012916;28;20096;-71
2021/12/21 03:18:04;;;;;;;14.50;6.03;;;;;;;;;;5018685;28;20049;-71
2021/12/21 03:20:30;;;;;;;14.18;5.47;;;;;;;;;;5012205;28;20074;-71
2021/12/21 03:22:57;;;;;;;14.85;6.57;;;;;;;;;;5013530;28;20088;-72
2021/12/21 03:25:25;;;;;;;17.17;6.05;;;;;;;;;;5010365;28;20046;-72
2021/12/21 03:27:52;;;;;;;13.07;5.15;;;;;;;;;;5008771;28;20053;-72
2021/12/21 03:30:18;;;;;;;14.32;5.55;;;;;;;;;;5013435;28;20050;-71
2021/12/21 03:32:45;;;;;;;12.32;5.32;;;;;;;;;;5012994;28;20054;-72
2021/12/21 03:35:12;;;;;;;11.30;5.63;;;;;;;;;;5013572;28;20053;-72
2021/12/21 03:37:39;;;;;;;11.55;5.00;;;;;;;;;;5010512;28;20077;-72
2021/12/21 03:40:07;;;;;;;16.98;5.28;;;;;;;;;;5011635;28;20080;-72
2021/12/21 03:42:35;;;;;;;13.57;5.85;;;;;;;;;;5013697;28;20503;-72
2021/12/21 03:45:02;;;;;;;11.93;5.07;;;;;;;;;;5010864;28;20049;-72
2021/12/21 03:47:31;;;;;;;10.68;4.80;;;;;;;;;;5009548;28;20563;-72
2021/12/21 03:50:00;;;;;;;11.23;4.97;;;;;;;;;;5013299;28;20050;-72
2021/12/21 03:52:28;;;;;;;12.80;6.00;;;;;;;;;;5012282;28;20058;-72
2021/12/21 03:54:57;;;;;;;13.60;5.13;;;;;;;;;;5008183;28;20058;-72
2021/12/21 03:57:24;;;;;;;9.65;4.40;;;;;;;;;;5011724;28;20081;-72
2021/12/21 03:59:53;;;;;;;14.82;5.50;;;;;;;;;;5009961;28;20060;-72
2021/12/21 04:02:22;;;;;;;9.32;4.43;;;;;;;;;;5009305;28;20053;-72
2021/12/21 04:04:49;;;;;;;10.45;4.55;;;;;;;;;;5011617;28;20057;-72
2021/12/21 04:07:16;;;;;;;6.70;3.55;;;;;;;;;;5011845;28;20049;-72
2021/12/21 04:09:43;;;;;;;8.95;4.80;;;;;;;;;;5010925;28;20081;-72
2021/12/21 04:12:10;;;;;;;10.47;4.60;;;;;;;;;;5012622;28;20086;-72
2021/12/21 04:14:37;;;;;;;9.07;4.78;;;;;;;;;;5013448;28;20084;-72
2021/12/21 04:17:06;;;;;;;11.90;6.13;;;;;;;;;;5015122;28;20472;-71
2021/12/21 04:19:33;;;;;;;12.73;5.38;;;;;;;;;;5012079;28;20061;-72
2021/12/21 04:21:59;;;;;;;12.88;6.10;;;;;;;;;;5014645;28;20076;-71
2021/12/21 04:24:26;;;;;;;11.98;5.63;;;;;;;;;;5006563;28;20045;-71
2021/12/21 04:26:53;;;;;;;18.52;6.50;;;;;;;;;;5010409;28;20115;-72
2021/12/21 04:29:19;;;;;;;16.23;6.38;;;;;;;;;;5006823;28;20116;-71
2021/12/21 04:31:46;;;;;;;15.38;7.80;;;;;;;;;;5008925;28;20781;-72
2021/12/21 04:34:14;;;;;;;13.85;6.65;;;;;;;;;;5006715;28;20716;-71
2021/12/21 04:36:42;;;;;;;15.23;6.80;;;;;;;;;;5000852;28;20140;-71
2021/12/21 04:39:18;;;;;;;15.77;6.20;;;;;;;;;;4997730;28;21228;-71
2021/12/21 04:41:45;;;;;;;16.55;6.28;;;;;;;;;;4996755;28;20059;-72
2021/12/21 04:44:12;;;;;;;12.90;5.72;;;;;;;;;;4998779;28;20072;-72
2021/12/21 04:46:39;;;;;;;9.02;5.22;;;;;;;;;;4997471;28;21651;-72
2021/12/21 04:49:05;;;;;;;14.00;5.40;;;;;;;;;;4999407;28;20054;-72
2021/12/21 04:51:33;;;;;;;9.63;4.75;;;;;;;;;;4997702;28;20128;-72
2021/12/21 04:54:00;;;;;;;11.48;5.70;;;;;;;;;;4999219;28;20081;-72
2021/12/21 04:56:26;;;;;;;14.15;4.85;;;;;;;;;;4999347;28;20101;-72
2021/12/21 04:58:53;;;;;;;11.48;5.60;;;;;;;;;;4997911;28;20266;-72
2021/12/21 05:01:20;;;;;;;10.85;5.28;;;;;;;;;;4995265;28;20141;-72
2021/12/21 05:03:46;;;;;;;20.13;7.60;;;;;;;;;;4998871;28;20196;-72
2021/12/21 05:06:15;;;;;;;13.90;5.20;;;;;;;;;;4997175;28;20100;-72
2021/12/21 05:08:52;;;;;;;15.98;5.75;;;;;;;;;;4995963;28;20058;-72
2021/12/21 05:11:19;;;;;;;10.80;5.43;;;;;;;;;;4996330;28;20045;-72
2021/12/21 05:13:46;;;;;;;16.00;6.07;;;;;;;;;;4996405;28;20046;-72
2021/12/21 05:16:13;;;;;;;17.17;5.63;;;;;;;;;;4997225;28;20140;-72
2021/12/21 05:18:39;;;;;;;13.37;5.50;;;;;;;;;;5000025;28;20141;-72
2021/12/21 05:21:07;;;;;;;20.17;5.35;;;;;;;;;;4998991;28;20050;-72
2021/12/21 05:23:33;;;;;;;12.98;6.07;;;;;;;;;;4997182;28;20077;-72
2021/12/21 05:26:01;;;;;;;11.80;5.72;;;;;;;;;;4978469;28;20145;-72
2021/12/21 05:28:28;;;;;;;19.05;7.25;;;;;;;;;;4997432;28;20109;-71
2021/12/21 05:30:55;;;;;;;19.97;6.10;;;;;;;;;;4998569;28;20781;-72
2021/12/21 05:33:21;;;;;;;12.48;5.88;;;;;;;;;;4997059;28;20109;-71
2021/12/21 05:35:48;;;;;;;12.25;6.13;;;;;;;;;;4999859;28;20488;-72
2021/12/21 05:38:19;;;;;;;11.25;6.00;;;;;;;;;;4997248;28;20046;-72
2021/12/21 05:40:47;;;;;;;12.60;5.78;;;;;;;;;;4999252;28;20115;-72
2021/12/21 05:43:15;;;;;;;13.73;6.13;;;;;;;;;;4996870;28;20477;-72
2021/12/21 05:45:41;;;;;;;12.20;6.47;;;;;;;;;;5002849;28;20111;-71
2021/12/21 05:48:08;;;;;;;15.77;6.63;;;;;;;;;;4990602;28;20141;-72
2021/12/21 05:50:36;;;;;;;16.20;6.50;;;;;;;;;;4990669;28;20170;-71
2021/12/21 05:53:02;;;;;;;10.57;5.77;;;;;;;;;;4990200;28;20054;-72
2021/12/21 05:55:29;;;;;;;16.25;6.53;;;;;;;;;;4981827;28;20524;-72
2021/12/21 05:57:56;;;;;;;14.13;6.47;;;;;;;;;;4985452;28;20073;-71
2021/12/21 06:00:27;;;;;;;13.50;5.53;;;;;;;;;;4987416;28;20081;-71
2021/12/21 06:02:54;;;;;;;13.82;5.85;;;;;;;;;;4988107;28;20070;-71
2021/12/21 06:05:20;;;;;;;11.50;6.88;;;;;;;;;;4993310;28;20109;-72
2021/12/21 06:07:50;;;;;;;15.15;7.25;;;;;;;;;;4992409;28;21412;-71
2021/12/21 06:10:23;;;;;;;19.52;7.65;;;;;;;;;;4997365;28;20042;-71
2021/12/21 06:13:16;;;;;;;16.43;7.33;;;;;;;;;;4993278;28;20595;-71
2021/12/21 06:15:55;;;;;;;18.45;7.95;;;;;;;;;;4994807;28;20058;-72
2021/12/21 06:26:38;;;;;;;13.90;6.50;;;;;;;;;;4986618;28;20061;-71
2021/12/21 06:29:04;;;;;;;13.82;5.22;;;;;;;;;;4993649;28;20481;-71
2021/12/21 06:31:33;;;;;;;13.23;5.95;;;;;;;;;;5004833;28;20077;-71
2021/12/21 06:34:00;;;;;;;17.43;7.27;;;;;;;;;;4994011;28;20453;-71
2021/12/21 06:36:27;;;;;;;12.90;5.37;;;;;;;;;;4995722;28;20088;-72
2021/12/21 06:38:54;;;;;;;18.17;5.83;;;;;;;;;;4991032;28;20745;-72
2021/12/21 06:41:21;;;;;;;15.30;4.87;;;;;;;;;;4994830;28;20042;-71
2021/12/21 06:43:48;;;;;;;17.48;5.30;;;;;;;;;;4991689;28;20709;-71
2021/12/21 06:46:29;;;;;;;9.60;4.53;;;;;;;;;;4998514;28;20117;-71
2021/12/21 06:51:47;;;;;;;43.63;8.25;;;;;;;;;;5012941;28;20072;-71
2021/12/21 06:54:14;;;;;;;12.93;5.30;;;;;;;;;;5015899;28;20046;-71
2021/12/21 06:56:41;;;;;;;16.07;6.00;;;;;;;;;;5017036;28;20063;-71
2021/12/21 06:59:07;;;;;;;18.93;7.23;;;;;;;;;;5015815;28;20054;-71
2021/12/21 07:01:37;;;;;;;18.90;10.17;;;;;;;;;;5015791;28;20057;-71
2021/12/21 07:04:08;;;;;;;18.88;7.80;;;;;;;;;;5018451;28;20088;-72
2021/12/21 07:06:35;;;;;;;21.67;6.88;;;;;;;;;;5020881;28;20061;-71
2021/12/21 07:09:08;;;;;;;13.35;6.70;;;;;;;;;;5019690;28;20149;-71
2021/12/21 07:11:42;;;;;;;12.20;6.28;;;;;;;;;;5018640;28;20060;-71
2021/12/21 07:19:39;;;;;;;28.10;8.45;;;;;;;;;;5017896;28;20065;-71
2021/12/21 07:22:06;;;;;;;12.50;4.80;;;;;;;;;;5019034;28;20065;-71
2021/12/21 07:24:33;;;;;;;12.77;4.78;;;;;;;;;;5017961;28;20085;-71
2021/12/21 07:27:00;;;;;;;27.23;5.40;;;;;;;;;;5017339;28;20077;-71
2021/12/21 07:29:26;;;;;;;13.33;5.67;;;;;;;;;;5015748;28;20089;-71
2021/12/21 07:31:53;;;;;;;13.07;5.50;;;;;;;;;;5018034;28;20046;-71
2021/12/21 07:34:20;;;;;;;7.97;4.10;;;;;;;;;;5019387;28;20805;-71
2021/12/21 07:36:48;;;;;;;15.43;5.13;;;;;;;;;;5017077;28;20076;-71
2021/12/21 07:39:17;;;;;;;12.05;4.97;;;;;;;;;;5007413;28;20830;-71
2021/12/21 07:41:45;;;;;;;9.15;4.18;;;;;;;;;;5018235;28;20458;-71
2021/12/21 07:44:12;;;;;;;11.17;4.87;;;;;;;;;;5020033;28;20508;-71
2021/12/21 07:46:40;;;;;;;12.60;5.22;;;;;;;;;;5015436;28;20061;-71
2021/12/21 07:49:07;;;;;;;10.85;4.60;;;;;;;;;;5009987;28;20050;-71
2021/12/21 07:51:33;;;;;;;15.35;5.40;;;;;;;;;;5018165;28;20056;-71
2021/12/21 07:54:01;;;;;;;9.70;4.00;;;;;;;;;;5014435;28;20335;-71
2021/12/21 07:56:28;;;;;;;13.60;5.70;;;;;;;;;;5016821;28;20078;-71
2021/12/21 07:58:55;;;;;;;15.95;5.10;;;;;;;;;;5017247;28;20061;-71
2021/12/21 08:01:22;;;;;;;14.98;5.35;;;;;;;;;;5017161;28;20057;-71
2021/12/21 08:03:49;;;;;;;15.05;5.72;;;;;;;;;;5014272;28;20078;-71
2021/12/21 08:06:17;;;;;;;15.10;5.25;;;;;;;;;;5016780;28;20061;-71
2021/12/21 08:08:45;;;;;;;11.35;5.20;;;;;;;;;;5014220;28;20073;-71
2021/12/21 08:11:17;;;;;;;14.25;6.00;;;;;;;;;;5014195;28;20071;-71
2021/12/21 08:13:46;;;;;;;11.30;5.80;;;;;;;;;;5014819;28;20046;-71
2021/12/21 08:16:13;;;;;;;11.50;5.13;;;;;;;;;;5005318;28;20057;-71
2021/12/21 08:18:40;;;;;;;13.00;5.57;;;;;;;;;;5009209;28;20449;-71
2021/12/21 08:21:07;;;;;;;12.75;5.57;;;;;;;;;;5010709;28;20101;-71
2021/12/21 08:23:34;;;;;;;12.98;6.50;;;;;;;;;;5010376;28;20050;-71
2021/12/21 08:26:01;;;;;;;14.82;7.68;;;;;;;;;;5011375;28;20077;-71
2021/12/21 08:28:29;;;;;;;15.98;6.82;;;;;;;;;;5007281;28;20038;-71
2021/12/21 08:30:55;;;;;;;15.38;6.72;;;;;;;;;;5010050;28;20138;-71
2021/12/21 08:33:22;;;;;;;19.83;8.27;;;;;;;;;;5011002;28;20698;-71
2021/12/21 08:35:49;;;;;;;17.95;8.45;;;;;;;;;;5010756;28;20127;-71
2021/12/21 08:38:17;;;;;;;15.88;8.00;;;;;;;;;;5010094;28;20570;-71
2021/12/21 08:40:49;;;;;;;13.23;6.65;;;;;;;;;;5014759;28;20049;-71
2021/12/21 08:50:09;;;;;;;23.00;9.90;;;;;;;;;;5009190;28;20060;-71
2021/12/21 08:52:36;;;;;;;28.48;10.77;;;;;;;;;;5005879;28;20104;-71
2021/12/21 08:55:05;;;;;;;16.55;8.98;;;;;;;;;;5010595;28;20049;-71
2021/12/21 08:57:32;;;;;;;15.93;8.43;;;;;;;;;;5010848;28;20132;-71
2021/12/21 08:59:59;;;;;;;20.05;8.50;;;;;;;;;;5009561;28;20141;-71
2021/12/21 09:02:28;;;;;;;17.35;8.68;;;;;;;;;;5013203;28;20452;-71
2021/12/21 09:04:54;;;;;;;17.42;9.30;;;;;;;;;;5011428;28;20117;-71
2021/12/21 09:07:23;;;;;;;19.45;10.30;;;;;;;;;;5010749;28;20129;-71
2021/12/21 09:09:49;;;;;;;18.70;9.88;;;;;;;;;;5015400;28;20456;-71
2021/12/21 09:12:16;;;;;;;20.58;10.57;;;;;;;;;;5009220;28;20908;-71
2021/12/21 09:14:42;;;;;;;20.02;9.93;;;;;;;;;;5005874;28;20144;-71
2021/12/21 09:17:09;;;;;;;17.70;9.20;;;;;;;;;;5006869;28;20081;-71
2021/12/21 09:19:36;;;;;;;18.23;9.30;;;;;;;;;;5006509;28;20042;-71
2021/12/21 09:22:02;;;;;;;22.02;10.63;;;;;;;;;;5009653;28;20458;-71
2021/12/21 09:24:31;;;;;;;20.17;10.45;;;;;;;;;;5006374;28;20548;-71
2021/12/21 09:26:58;;;;;;;26.48;10.20;;;;;;;;;;5006821;28;20057;-71
2021/12/21 09:29:24;;;;;;;24.30;10.13;;;;;;;;;;5006170;28;20073;-71
2021/12/21 09:31:51;;;;;;;22.17;11.13;;;;;;;;;;5009811;28;20868;-71
2021/12/21 09:34:17;;;;;;;17.77;10.50;;;;;;;;;;5008556;28;20137;-71
2021/12/21 09:36:44;;;;;;;31.67;11.95;;;;;;;;;;4990040;28;20145;-71
2021/12/21 09:39:10;;;;;;;29.83;11.05;;;;;;;;;;5008654;28;20456;-71
2021/12/21 09:41:38;;;;;;;21.33;11.77;;;;;;;;;;5008978;28;20628;-71
2021/12/21 09:44:05;;;;;;;20.67;11.30;;;;;;;;;;5006275;28;20153;-71
2021/12/21 09:46:32;;;;;;;23.02;10.73;;;;;;;;;;5006509;28;20132;-71
2021/12/21 09:48:59;;;;;;;31.30;16.15;;;;;;;;;;5007806;28;20145;-71
2021/12/21 09:51:25;;;;;;;20.65;11.13;;;;;;;;;;5008103;28;20145;-71
2021/12/21 09:53:52;;;;;;;17.30;10.85;;;;;;;;;;5007454;28;20069;-71
2021/12/21 09:56:20;;;;;;;23.00;10.13;;;;;;;;;;5008724;28;20108;-71
2021/12/21 09:58:48;;;;;;;19.85;10.57;;;;;;;;;;5009139;28;20054;-71
2021/12/21 10:01:18;;;;;;;18.20;9.52;;;;;;;;;;5009613;28;20547;-71
2021/12/21 10:03:45;;;;;;;25.98;11.43;;;;;;;;;;5011104;28;20050;-71
2021/12/21 10:06:13;;;;;;;18.45;10.98;;;;;;;;;;5010782;28;20069;-71
2021/12/21 10:08:41;;;;;;;22.17;10.77;;;;;;;;;;5002519;28;20133;-71
2021/12/21 10:11:08;;;;;;;21.35;10.82;;;;;;;;;;5008023;28;20069;-71
2021/12/21 10:13:36;;;;;;;24.17;11.30;;;;;;;;;;5010653;28;20123;-71
2021/12/21 10:16:06;;;;;;;24.60;11.85;;;;;;;;;;5010912;28;20054;-71
2021/12/21 10:18:34;;;;;;;21.40;11.57;;;;;;;;;;5008183;28;20121;-71
2021/12/21 10:21:02;;;;;;;23.58;13.30;;;;;;;;;;5003386;28;20817;-71
2021/12/21 10:23:32;;;;;;;23.67;12.02;;;;;;;;;;5003201;28;20069;-71
2021/12/21 10:26:01;;;;;;;16.17;10.55;;;;;;;;;;5006376;28;20543;-71
2021/12/21 10:28:30;;;;;;;23.85;12.50;;;;;;;;;;5007241;28;20735;-71
2021/12/21 10:30:58;;;;;;;24.40;12.45;;;;;;;;;;5008069;28;20171;-71
2021/12/21 10:33:29;;;;;;;21.40;11.50;;;;;;;;;;5011748;28;20045;-71
2021/12/21 10:35:58;;;;;;;18.60;10.35;;;;;;;;;;5007801;28;20145;-71
2021/12/21 10:38:29;;;;;;;20.85;10.95;;;;;;;;;;5006628;28;20088;-71
2021/12/21 10:41:00;;;;;;;23.02;12.18;;;;;;;;;;5010499;28;20070;-71
2021/12/21 10:43:29;;;;;;;20.40;9.52;;;;;;;;;;5012864;28;20041;-71
2021/12/21 10:45:56;;;;;;;25.40;11.60;;;;;;;;;;5011187;28;20085;-71
2021/12/21 10:48:23;;;;;;;19.48;10.48;;;;;;;;;;5009335;28;20077;-71
2021/12/21 10:50:51;;;;;;;24.90;11.63;;;;;;;;;;5015207;28;20081;-71
2021/12/21 10:53:20;;;;;;;20.92;10.93;;;;;;;;;;5011833;28;20125;-71
2021/12/21 10:55:47;;;;;;;19.13;9.70;;;;;;;;;;5008090;28;20679;-71
2021/12/21 10:58:16;;;;;;;17.25;9.25;;;;;;;;;;5008849;28;20716;-71
2021/12/21 11:00:46;;;;;;;17.10;8.93;;;;;;;;;;5008415;28;20053;-71
2021/12/21 11:03:16;;;;;;;16.33;8.80;;;;;;;;;;5010083;28;20045;-71
2021/12/21 11:05:43;;;;;;;18.08;9.35;;;;;;;;;;5011159;28;20053;-71
2021/12/21 11:08:16;;;;;;;16.98;9.57;;;;;;;;;;5008442;28;20658;-71
2021/12/21 11:10:50;;;;;;;14.65;7.97;;;;;;;;;;5008273;28;20049;-71
2021/12/21 11:13:17;;;;;;;17.48;8.30;;;;;;;;;;5008212;28;20054;-71
2021/12/21 11:15:51;;;;;;;23.02;11.85;;;;;;;;;;5009143;28;20141;-70
2021/12/21 11:18:18;;;;;;;17.08;9.38;;;;;;;;;;5009052;28;20054;-71
2021/12/21 11:20:45;;;;;;;14.57;8.93;;;;;;;;;;4992853;28;20447;-71
2021/12/21 11:23:14;;;;;;;15.32;9.40;;;;;;;;;;5006746;28;20507;-71
2021/12/21 11:25:42;;;;;;;16.50;10.57;;;;;;;;;;5004853;28;20136;-71
2021/12/21 11:28:15;;;;;;;14.45;8.20;;;;;;;;;;5006904;28;20076;-71
2021/12/21 11:30:42;;;;;;;17.52;8.27;;;;;;;;;;5012189;28;20085;-71
2021/12/21 11:33:10;;;;;;;15.23;9.32;;;;;;;;;;5008985;28;20630;-71
2021/12/21 11:38:22;;;;;;;15.00;8.25;;;;;;;;;;5005995;28;20060;-71
2021/12/21 11:40:50;;;;;;;14.30;8.50;;;;;;;;;;5005265;28;20245;-71
2021/12/21 11:43:29;;;;;;;16.48;9.80;;;;;;;;;;5008919;28;20046;-70
2021/12/21 11:45:58;;;;;;;16.38;9.23;;;;;;;;;;5007660;28;20493;-70
2021/12/21 11:48:32;;;;;;;18.25;8.93;;;;;;;;;;5007826;28;20132;-71
2021/12/21 11:51:02;;;;;;;14.23;9.30;;;;;;;;;;5012382;28;20073;-71
2021/12/21 11:53:30;;;;;;;15.32;8.63;;;;;;;;;;5006819;28;20588;-71
2021/12/21 11:55:57;;;;;;;18.25;9.60;;;;;;;;;;5009010;28;20136;-71
2021/12/21 11:58:25;;;;;;;16.48;9.57;;;;;;;;;;5003417;28;20050;-71
2021/12/21 12:00:55;;;;;;;19.35;9.30;;;;;;;;;;5009597;28;20140;-71
2021/12/21 12:03:24;;;;;;;17.05;9.52;;;;;;;;;;5008302;28;20049;-70
2021/12/21 12:05:54;;;;;;;13.85;8.27;;;;;;;;;;5004971;28;20050;-70
2021/12/21 12:08:21;;;;;;;14.55;9.07;;;;;;;;;;5006977;28;20120;-70
2021/12/21 12:10:53;;;;;;;14.98;8.75;;;;;;;;;;5009063;28;20164;-70
2021/12/21 12:13:32;;;;;;;17.83;9.20;;;;;;;;;;5007263;28;20046;-70
2021/12/21 12:16:01;;;;;;;20.98;9.13;;;;;;;;;;4999966;28;20137;-70
2021/12/21 12:18:34;;;;;;;19.27;9.05;;;;;;;;;;4986651;28;20157;-70
2021/12/21 12:21:17;;;;;;;15.57;9.00;;;;;;;;;;5009792;28;21563;-70
2021/12/21 12:23:46;;;;;;;15.05;8.90;;;;;;;;;;5013280;28;20047;-70
2021/12/21 12:26:24;;;;;;;14.07;9.32;;;;;;;;;;5007817;28;20471;-70
2021/12/21 12:28:50;;;;;;;15.13;9.85;;;;;;;;;;5003784;28;20479;-70
2021/12/21 12:31:29;;;;;;;44.38;23.27;;;;;;;;;;5003579;28;20054;-70
2021/12/21 12:33:55;;;;;;;43.45;22.10;;;;;;;;;;5007389;28;20460;-71
2021/12/21 12:36:33;;;;;;;30.00;15.30;;;;;;;;;;5008207;28;20137;-71
2021/12/21 12:39:00;;;;;;;28.60;13.40;;;;;;;;;;5005009;28;20145;-71
2021/12/21 12:41:28;;;;;;;21.70;10.85;;;;;;;;;;5007596;28;20748;-71
2021/12/21 12:43:54;;;;;;;20.08;11.32;;;;;;;;;;5006394;28;20141;-71
2021/12/21 12:46:25;;;;;;;21.58;11.82;;;;;;;;;;5006319;28;20133;-70
2021/12/21 12:48:52;;;;;;;23.88;10.60;;;;;;;;;;5003016;28;20142;-70
2021/12/21 12:51:25;;;;;;;19.40;9.73;;;;;;;;;;5007970;28;20085;-70
2021/12/21 12:53:52;;;;;;;16.40;10.02;;;;;;;;;;5004162;28;20125;-70
2021/12/21 12:56:20;;;;;;;15.90;10.25;;;;;;;;;;5006965;28;20129;-70
2021/12/21 12:58:53;;;;;;;17.35;9.82;;;;;;;;;;5004864;28;20050;-70
2021/12/21 13:01:24;;;;;;;18.17;10.23;;;;;;;;;;5007697;28;20086;-70
2021/12/21 13:03:52;;;;;;;21.35;11.25;;;;;;;;;;5003969;28;20054;-71
2021/12/21 13:06:21;;;;;;;15.50;9.70;;;;;;;;;;5006684;28;20057;-71
2021/12/21 13:08:48;;;;;;;14.98;9.23;;;;;;;;;;5005865;28;20108;-71
2021/12/21 13:11:19;;;;;;;16.77;10.90;;;;;;;;;;5005216;28;20571;-71
2021/12/21 13:13:47;;;;;;;14.40;9.40;;;;;;;;;;5006200;28;20133;-71
2021/12/21 13:16:17;;;;;;;17.20;10.77;;;;;;;;;;5006923;28;20038;-71
2021/12/21 13:18:46;;;;;;;14.52;9.55;;;;;;;;;;5010726;28;20719;-70
2021/12/21 13:21:21;;;;;;;17.35;10.68;;;;;;;;;;5007889;28;20141;-71
2021/12/21 13:23:51;;;;;;;18.92;11.38;;;;;;;;;;5007186;28;20082;-70
2021/12/21 13:26:18;;;;;;;17.58;10.68;;;;;;;;;;5014264;28;20112;-70
2021/12/21 13:28:48;;;;;;;27.02;13.77;;;;;;;;;;5008368;28;20053;-71
2021/12/21 13:31:18;;;;;;;29.58;14.88;;;;;;;;;;5006517;28;20141;-71
2021/12/21 13:33:50;;;;;;;26.33;14.95;;;;;;;;;;5005413;28;20048;-71
2021/12/21 13:36:16;;;;;;;23.30;11.93;;;;;;;;;;4998737;28;20142;-71
2021/12/21 13:38:43;;;;;;;20.23;11.68;;;;;;;;;;5009026;28;20467;-71
2021/12/21 13:41:13;;;;;;;19.67;12.10;;;;;;;;;;5007469;28;20136;-71
2021/12/21 13:43:53;;;;;;;24.85;12.73;;;;;;;;;;5003760;28;20449;-71
2021/12/21 13:46:21;;;;;;;26.88;14.80;;;;;;;;;;5006751;28;20125;-70
2021/12/21 13:48:52;;;;;;;29.35;16.45;;;;;;;;;;5007593;28;20092;-71
2021/12/21 13:51:19;;;;;;;26.38;14.55;;;;;;;;;;5009120;28;20128;-70
2021/12/21 13:53:47;;;;;;;26.05;15.02;;;;;;;;;;5006036;28;20144;-70
2021/12/21 13:56:20;;;;;;;19.88;12.98;;;;;;;;;;5008784;28;20123;-70
2021/12/21 13:58:47;;;;;;;21.77;12.05;;;;;;;;;;5005053;28;20117;-70
2021/12/21 14:01:18;;;;;;;24.30;10.98;;;;;;;;;;5007118;28;20732;-70
2021/12/21 14:03:52;;;;;;;22.75;11.50;;;;;;;;;;5008402;28;20734;-70
2021/12/21 14:06:22;;;;;;;20.05;11.70;;;;;;;;;;5006089;28;20606;-70
2021/12/21 14:08:49;;;;;;;19.40;10.52;;;;;;;;;;5003132;28;20489;-70
2021/12/21 14:11:17;;;;;;;22.20;11.70;;;;;;;;;;5004496;28;20547;-70
2021/12/21 14:13:46;;;;;;;20.95;12.23;;;;;;;;;;5006896;28;20133;-70
2021/12/21 14:16:15;;;;;;;19.20;10.95;;;;;;;;;;5004153;28;20116;-70
2021/12/21 14:18:43;;;;;;;25.10;12.40;;;;;;;;;;5006396;28;20057;-70
2021/12/21 14:21:13;;;;;;;26.65;14.52;;;;;;;;;;5005082;28;20065;-70
2021/12/21 14:23:45;;;;;;;19.73;12.63;;;;;;;;;;5004583;28;20065;-70
2021/12/21 14:26:13;;;;;;;22.90;11.70;;;;;;;;;;5007907;28;20149;-70
2021/12/21 14:28:52;;;;;;;23.05;14.32;;;;;;;;;;5005617;28;20046;-70
2021/12/21 14:31:22;;;;;;;24.67;12.35;;;;;;;;;;5005339;28;20116;-71
2021/12/21 14:33:52;;;;;;;19.92;10.93;;;;;;;;;;5005122;28;20054;-70
2021/12/21 14:36:22;;;;;;;24.13;13.85;;;;;;;;;;5006289;28;20050;-70
2021/12/21 14:38:53;;;;;;;22.27;12.75;;;;;;;;;;5007517;28;20136;-70
2021/12/21 14:41:21;;;;;;;25.48;12.68;;;;;;;;;;5006468;28;20625;-71
2021/12/21 14:43:48;;;;;;;31.10;15.90;;;;;;;;;;5006881;28;20145;-70
2021/12/21 14:46:19;;;;;;;22.88;12.95;;;;;;;;;;5006979;28;20132;-70
2021/12/21 14:48:57;;;;;;;25.52;14.50;;;;;;;;;;5008244;28;20104;-70
2021/12/21 14:51:25;;;;;;;22.50;11.85;;;;;;;;;;4981338;28;20138;-70
2021/12/21 14:54:02;;;;;;;20.48;10.85;;;;;;;;;;5003748;28;20085;-70
2021/12/21 14:56:30;;;;;;;22.35;11.60;;;;;;;;;;5000330;28;20092;-71
2021/12/21 14:58:58;;;;;;;25.52;12.40;;;;;;;;;;4998662;28;20141;-71
2021/12/21 15:01:25;;;;;;;24.90;14.00;;;;;;;;;;5004101;28;20073;-70
2021/12/21 15:03:51;;;;;;;26.10;12.80;;;;;;;;;;5006111;28;20561;-71
2021/12/21 15:06:18;;;;;;;21.33;12.32;;;;;;;;;;5006667;28;20092;-71
2021/12/21 15:08:46;;;;;;;26.35;13.27;;;;;;;;;;5004161;28;21138;-71
2021/12/21 15:11:13;;;;;;;28.08;14.75;;;;;;;;;;5004361;28;20074;-70
2021/12/21 15:13:39;;;;;;;27.50;14.45;;;;;;;;;;4989260;28;20128;-70
2021/12/21 15:16:06;;;;;;;26.63;14.73;;;;;;;;;;5005045;28;20085;-70